sensor_id;sensor_type;location;lat;lon;timestamp;pressure;altitude;pressure_sealevel;temperature;humidity
8705;BME280;4389;41.932;25.904;2022-12-16T00:00:28;100634.25;;;5.63;100.00
8705;BME280;4389;41.932;25.904;2022-12-16T00:02:54;100636.28;;;5.72;100.00
8705;BME280;4389;41.932;25.904;2022-12-16T00:05:22;100615.56;;;5.94;100.00
8705;BME280;4389;41.932;25.904;2022-12-16T00:07:49;100616.19;;;6.10;100.00
8705;BME280;4389;41.932;25.904;2022-12-16T00:10:16;100616.59;;;6.16;100.00
8705;BME280;4389;41.932;25.904;2022-12-16T00:12:43;100605.16;;;6.30;100.00
8705;BME280;4389;41.932;25.904;2022-12-16T00:15:10;100605.16;;;6.42;100.00
8705;BME280;4389;41.932;25.904;2022-12-16T00:17:37;100592.53;;;6.35;100.00
8705;BME280;4389;41.932;25.904;2022-12-16T00:20:05;100597.38;;;6.41;100.00
8705;BME280;4389;41.932;25.904;2022-12-16T00:22:33;100593.03;;;6.52;100.00
8705;BME280;4389;41.932;25.904;2022-12-16T00:25:00;100578.94;;;6.53;100.00
8705;BME280;4389;41.932;25.904;2022-12-16T00:27:27;100581.50;;;6.42;100.00
8705;BME280;4389;41.932;25.904;2022-12-16T00:29:54;100585.91;;;6.42;100.00
8705;BME280;4389;41.932;25.904;2022-12-16T00:32:21;100580.44;;;6.45;100.00
8705;BME280;4389;41.932;25.904;2022-12-16T00:34:48;100582.31;;;6.43;100.00
8705;BME280;4389;41.932;25.904;2022-12-16T00:37:15;100587.81;;;6.40;100.00
8705;BME280;4389;41.932;25.904;2022-12-16T00:39:43;100586.34;;;6.36;100.00
8705;BME280;4389;41.932;25.904;2022-12-16T00:42:10;100578.53;;;6.47;100.00
8705;BME280;4389;41.932;25.904;2022-12-16T00:44:37;100575.34;;;6.67;100.00
8705;BME280;4389;41.932;25.904;2022-12-16T00:47:03;100568.63;;;6.63;100.00
8705;BME280;4389;41.932;25.904;2022-12-16T00:49:30;100562.88;;;6.58;100.00
8705;BME280;4389;41.932;25.904;2022-12-16T00:51:57;100560.44;;;6.55;100.00
8705;BME280;4389;41.932;25.904;2022-12-16T00:54:24;100565.47;;;6.70;100.00
8705;BME280;4389;41.932;25.904;2022-12-16T00:56:52;100561.50;;;6.65;100.00
8705;BME280;4389;41.932;25.904;2022-12-16T00:59:19;100572.19;;;6.62;100.00
8705;BME280;4389;41.932;25.904;2022-12-16T01:01:46;100580.00;;;6.63;100.00
8705;BME280;4389;41.932;25.904;2022-12-16T01:04:13;100594.91;;;6.63;100.00
8705;BME280;4389;41.932;25.904;2022-12-16T01:06:40;100587.78;;;6.65;100.00
8705;BME280;4389;41.932;25.904;2022-12-16T01:09:07;100580.31;;;6.59;100.00
8705;BME280;4389;41.932;25.904;2022-12-16T01:11:33;100585.47;;;6.48;100.00
8705;BME280;4389;41.932;25.904;2022-12-16T01:14:02;100574.75;;;6.51;100.00
8705;BME280;4389;41.932;25.904;2022-12-16T01:16:29;100585.28;;;6.51;100.00
8705;BME280;4389;41.932;25.904;2022-12-16T01:18:56;100588.69;;;6.64;100.00
8705;BME280;4389;41.932;25.904;2022-12-16T01:21:22;100594.91;;;6.63;100.00
8705;BME280;4389;41.932;25.904;2022-12-16T01:23:49;100599.41;;;6.73;100.00
8705;BME280;4389;41.932;25.904;2022-12-16T01:26:16;100599.00;;;6.67;100.00
8705;BME280;4389;41.932;25.904;2022-12-16T01:28:44;100604.25;;;6.67;100.00
8705;BME280;4389;41.932;25.904;2022-12-16T01:31:14;100609.22;;;6.59;100.00
8705;BME280;4389;41.932;25.904;2022-12-16T01:33:42;100613.44;;;6.49;100.00
8705;BME280;4389;41.932;25.904;2022-12-16T01:36:09;100613.34;;;6.50;100.00
8705;BME280;4389;41.932;25.904;2022-12-16T01:38:37;100608.09;;;6.38;100.00
8705;BME280;4389;41.932;25.904;2022-12-16T01:41:04;100616.16;;;6.35;100.00
8705;BME280;4389;41.932;25.904;2022-12-16T01:43:33;100607.22;;;6.50;100.00
8705;BME280;4389;41.932;25.904;2022-12-16T01:46:03;100598.28;;;6.65;100.00
8705;BME280;4389;41.932;25.904;2022-12-16T01:48:38;100588.25;;;6.70;100.00
8705;BME280;4389;41.932;25.904;2022-12-16T01:51:20;100584.63;;;6.60;100.00
8705;BME280;4389;41.932;25.904;2022-12-16T01:53:50;100590.72;;;6.48;100.00
8705;BME280;4389;41.932;25.904;2022-12-16T01:56:19;100593.25;;;6.49;100.00
8705;BME280;4389;41.932;25.904;2022-12-16T01:58:48;100592.94;;;6.54;100.00
8705;BME280;4389;41.932;25.904;2022-12-16T02:01:16;100589.88;;;6.60;100.00
8705;BME280;4389;41.932;25.904;2022-12-16T02:03:46;100586.06;;;6.76;100.00
8705;BME280;4389;41.932;25.904;2022-12-16T02:06:14;100585.69;;;6.57;100.00
8705;BME280;4389;41.932;25.904;2022-12-16T02:08:41;100579.38;;;6.60;100.00
8705;BME280;4389;41.932;25.904;2022-12-16T02:11:23;100583.88;;;6.70;100.00
8705;BME280;4389;41.932;25.904;2022-12-16T02:14:06;100589.19;;;6.81;100.00
8705;BME280;4389;41.932;25.904;2022-12-16T02:16:44;100581.00;;;6.86;100.00
8705;BME280;4389;41.932;25.904;2022-12-16T02:19:32;100591.66;;;6.95;100.00
8705;BME280;4389;41.932;25.904;2022-12-16T02:22:12;100599.72;;;7.05;100.00
8705;BME280;4389;41.932;25.904;2022-12-16T02:24:57;100594.59;;;7.03;100.00
8705;BME280;4389;41.932;25.904;2022-12-16T02:27:57;100601.94;;;7.11;100.00
8705;BME280;4389;41.932;25.904;2022-12-16T02:33:54;100593.81;;;6.90;100.00
8705;BME280;4389;41.932;25.904;2022-12-16T02:36:37;100587.41;;;6.82;100.00
8705;BME280;4389;41.932;25.904;2022-12-16T02:39:12;100587.53;;;7.04;100.00
8705;BME280;4389;41.932;25.904;2022-12-16T02:41:43;100582.78;;;7.09;100.00
8705;BME280;4389;41.932;25.904;2022-12-16T02:44:14;100585.13;;;7.01;100.00
8705;BME280;4389;41.932;25.904;2022-12-16T02:46:43;100587.25;;;6.96;100.00
8705;BME280;4389;41.932;25.904;2022-12-16T02:49:52;100591.72;;;6.83;100.00
8705;BME280;4389;41.932;25.904;2022-12-16T02:52:21;100593.56;;;6.93;100.00
8705;BME280;4389;41.932;25.904;2022-12-16T02:54:51;100583.09;;;6.81;100.00
8705;BME280;4389;41.932;25.904;2022-12-16T02:57:35;100594.63;;;6.91;100.00
8705;BME280;4389;41.932;25.904;2022-12-16T03:00:08;100600.34;;;6.72;100.00
8705;BME280;4389;41.932;25.904;2022-12-16T03:02:44;100591.28;;;6.89;100.00
8705;BME280;4389;41.932;25.904;2022-12-16T03:05:19;100589.72;;;7.10;100.00
8705;BME280;4389;41.932;25.904;2022-12-16T03:07:47;100582.34;;;7.15;100.00
8705;BME280;4389;41.932;25.904;2022-12-16T03:10:19;100584.56;;;7.32;100.00
8705;BME280;4389;41.932;25.904;2022-12-16T03:12:47;100581.44;;;7.27;100.00
8705;BME280;4389;41.932;25.904;2022-12-16T03:15:17;100591.31;;;7.36;100.00
8705;BME280;4389;41.932;25.904;2022-12-16T03:17:46;100589.59;;;7.35;100.00
8705;BME280;4389;41.932;25.904;2022-12-16T03:20:18;100590.56;;;7.34;100.00
8705;BME280;4389;41.932;25.904;2022-12-16T03:22:49;100591.31;;;7.36;100.00
8705;BME280;4389;41.932;25.904;2022-12-16T03:25:18;100590.97;;;7.40;100.00
8705;BME280;4389;41.932;25.904;2022-12-16T03:27:54;100587.03;;;7.46;100.00
8705;BME280;4389;41.932;25.904;2022-12-16T03:30:26;100595.63;;;7.48;100.00
8705;BME280;4389;41.932;25.904;2022-12-16T03:32:58;100593.94;;;7.36;100.00
8705;BME280;4389;41.932;25.904;2022-12-16T03:35:30;100588.09;;;7.43;100.00
8705;BME280;4389;41.932;25.904;2022-12-16T03:38:03;100579.84;;;7.48;100.00
8705;BME280;4389;41.932;25.904;2022-12-16T03:40:31;100587.28;;;7.54;100.00
8705;BME280;4389;41.932;25.904;2022-12-16T03:43:00;100582.28;;;7.62;100.00
8705;BME280;4389;41.932;25.904;2022-12-16T03:45:31;100581.13;;;7.66;100.00
8705;BME280;4389;41.932;25.904;2022-12-16T03:48:01;100586.28;;;7.67;100.00
8705;BME280;4389;41.932;25.904;2022-12-16T03:50:31;100584.66;;;7.54;100.00
8705;BME280;4389;41.932;25.904;2022-12-16T03:52:59;100587.72;;;7.37;100.00
8705;BME280;4389;41.932;25.904;2022-12-16T03:55:26;100586.16;;;7.45;100.00
8705;BME280;4389;41.932;25.904;2022-12-16T03:57:53;100595.63;;;7.48;100.00
8705;BME280;4389;41.932;25.904;2022-12-16T04:00:22;100591.75;;;7.53;100.00
8705;BME280;4389;41.932;25.904;2022-12-16T04:02:49;100604.50;;;7.47;100.00
8705;BME280;4389;41.932;25.904;2022-12-16T04:05:16;100589.91;;;7.43;100.00
8705;BME280;4389;41.932;25.904;2022-12-16T04:07:45;100597.78;;;7.43;100.00
8705;BME280;4389;41.932;25.904;2022-12-16T04:10:12;100588.94;;;7.44;100.00
8705;BME280;4389;41.932;25.904;2022-12-16T04:12:38;100582.22;;;7.40;100.00
8705;BME280;4389;41.932;25.904;2022-12-16T04:15:23;100586.56;;;7.52;100.00
8705;BME280;4389;41.932;25.904;2022-12-16T04:18:12;100586.78;;;7.49;100.00
8705;BME280;4389;41.932;25.904;2022-12-16T04:20:57;100583.44;;;7.47;100.00
8705;BME280;4389;41.932;25.904;2022-12-16T04:23:46;100589.94;;;7.54;100.00
8705;BME280;4389;41.932;25.904;2022-12-16T04:26:31;100598.31;;;7.59;100.00
8705;BME280;4389;41.932;25.904;2022-12-16T04:29:20;100605.50;;;7.57;100.00
8705;BME280;4389;41.932;25.904;2022-12-16T04:31:47;100606.22;;;7.59;100.00
8705;BME280;4389;41.932;25.904;2022-12-16T04:34:14;100606.56;;;7.54;100.00
8705;BME280;4389;41.932;25.904;2022-12-16T04:36:52;100617.22;;;7.53;100.00
8705;BME280;4389;41.932;25.904;2022-12-16T04:39:38;100620.06;;;7.50;100.00
8705;BME280;4389;41.932;25.904;2022-12-16T04:42:22;100626.78;;;7.54;100.00
8705;BME280;4389;41.932;25.904;2022-12-16T04:45:07;100627.03;;;7.51;100.00
8705;BME280;4389;41.932;25.904;2022-12-16T04:47:52;100626.78;;;7.54;100.00
8705;BME280;4389;41.932;25.904;2022-12-16T04:50:36;100643.88;;;7.48;100.00
8705;BME280;4389;41.932;25.904;2022-12-16T04:53:20;100643.03;;;7.48;100.00
8705;BME280;4389;41.932;25.904;2022-12-16T04:56:06;100648.84;;;7.40;100.00
8705;BME280;4389;41.932;25.904;2022-12-16T04:58:50;100647.56;;;7.22;100.00
8705;BME280;4389;41.932;25.904;2022-12-16T05:01:34;100646.81;;;6.84;100.00
8705;BME280;4389;41.932;25.904;2022-12-16T05:04:19;100652.59;;;6.77;100.00
8705;BME280;4389;41.932;25.904;2022-12-16T05:07:03;100645.03;;;6.85;100.00
8705;BME280;4389;41.932;25.904;2022-12-16T05:09:47;100640.28;;;6.90;100.00
8705;BME280;4389;41.932;25.904;2022-12-16T05:12:33;100638.59;;;6.89;100.00
8705;BME280;4389;41.932;25.904;2022-12-16T05:15:17;100640.09;;;6.93;100.00
8705;BME280;4389;41.932;25.904;2022-12-16T05:18:07;100634.59;;;6.96;100.00
8705;BME280;4389;41.932;25.904;2022-12-16T05:20:51;100633.22;;;7.03;100.00
8705;BME280;4389;41.932;25.904;2022-12-16T05:23:35;100638.47;;;7.03;100.00
8705;BME280;4389;41.932;25.904;2022-12-16T05:26:19;100646.34;;;7.03;100.00
8705;BME280;4389;41.932;25.904;2022-12-16T05:29:05;100650.81;;;6.90;100.00
8705;BME280;4389;41.932;25.904;2022-12-16T05:31:49;100664.47;;;6.95;100.00
8705;BME280;4389;41.932;25.904;2022-12-16T05:34:34;100653.53;;;7.01;100.00
8705;BME280;4389;41.932;25.904;2022-12-16T05:37:18;100657.41;;;7.08;100.00
8705;BME280;4389;41.932;25.904;2022-12-16T05:40:03;100647.81;;;7.07;100.00
8705;BME280;4389;41.932;25.904;2022-12-16T05:42:48;100654.53;;;7.11;100.00
8705;BME280;4389;41.932;25.904;2022-12-16T05:45:33;100654.53;;;7.11;100.00
8705;BME280;4389;41.932;25.904;2022-12-16T05:48:18;100662.72;;;7.19;100.00
8705;BME280;4389;41.932;25.904;2022-12-16T05:51:02;100659.13;;;7.20;100.00
8705;BME280;4389;41.932;25.904;2022-12-16T05:53:46;100649.34;;;7.22;100.00
8705;BME280;4389;41.932;25.904;2022-12-16T05:56:31;100654.91;;;7.30;100.00
8705;BME280;4389;41.932;25.904;2022-12-16T05:59:15;100660.53;;;7.36;100.00
8705;BME280;4389;41.932;25.904;2022-12-16T06:02:03;100658.88;;;7.35;100.00
8705;BME280;4389;41.932;25.904;2022-12-16T06:04:47;100659.66;;;7.25;100.00
8705;BME280;4389;41.932;25.904;2022-12-16T06:07:32;100666.88;;;7.34;100.00
8705;BME280;4389;41.932;25.904;2022-12-16T06:10:16;100670.03;;;7.39;100.00
8705;BME280;4389;41.932;25.904;2022-12-16T06:13:00;100656.94;;;7.50;100.00
8705;BME280;4389;41.932;25.904;2022-12-16T06:15:44;100661.00;;;7.54;100.00
8705;BME280;4389;41.932;25.904;2022-12-16T06:18:30;100648.16;;;7.73;100.00
8705;BME280;4389;41.932;25.904;2022-12-16T06:21:15;100642.50;;;7.66;100.00
8705;BME280;4389;41.932;25.904;2022-12-16T06:23:59;100649.84;;;7.74;100.00
8705;BME280;4389;41.932;25.904;2022-12-16T06:26:44;100656.78;;;7.75;100.00
8705;BME280;4389;41.932;25.904;2022-12-16T06:29:28;100674.31;;;7.87;100.00
8705;BME280;4389;41.932;25.904;2022-12-16T06:32:12;100684.06;;;7.97;100.00
8705;BME280;4389;41.932;25.904;2022-12-16T06:35:07;100684.09;;;7.85;100.00
8705;BME280;4389;41.932;25.904;2022-12-16T06:37:51;100692.06;;;7.96;100.00
8705;BME280;4389;41.932;25.904;2022-12-16T06:40:35;100706.53;;;7.67;100.00
8705;BME280;4389;41.932;25.904;2022-12-16T06:43:20;100711.06;;;7.41;100.00
8705;BME280;4389;41.932;25.904;2022-12-16T06:46:04;100711.03;;;7.54;100.00
8705;BME280;4389;41.932;25.904;2022-12-16T06:48:48;100709.00;;;7.81;100.00
8705;BME280;4389;41.932;25.904;2022-12-16T06:51:34;100716.91;;;8.04;100.00
8705;BME280;4389;41.932;25.904;2022-12-16T06:54:18;100730.53;;;8.22;100.00
8705;BME280;4389;41.932;25.904;2022-12-16T06:57:02;100741.50;;;8.16;100.00
8705;BME280;4389;41.932;25.904;2022-12-16T06:59:47;100737.22;;;8.02;100.00
8705;BME280;4389;41.932;25.904;2022-12-16T07:02:31;100737.69;;;8.20;100.00
8705;BME280;4389;41.932;25.904;2022-12-16T07:05:16;100744.59;;;8.33;100.00
8705;BME280;4389;41.932;25.904;2022-12-16T07:08:02;100751.22;;;8.50;100.00
8705;BME280;4389;41.932;25.904;2022-12-16T07:10:46;100750.13;;;8.52;100.00
8705;BME280;4389;41.932;25.904;2022-12-16T07:13:30;100740.78;;;8.59;100.00
8705;BME280;4389;41.932;25.904;2022-12-16T07:16:14;100744.03;;;8.52;100.00
8705;BME280;4389;41.932;25.904;2022-12-16T07:18:58;100734.22;;;8.65;100.00
8705;BME280;4389;41.932;25.904;2022-12-16T07:21:43;100730.38;;;8.69;100.00
8705;BME280;4389;41.932;25.904;2022-12-16T07:24:28;100721.75;;;8.67;100.00
8705;BME280;4389;41.932;25.904;2022-12-16T07:27:12;100719.59;;;8.50;100.00
8705;BME280;4389;41.932;25.904;2022-12-16T07:29:56;100714.56;;;8.58;100.00
8705;BME280;4389;41.932;25.904;2022-12-16T07:32:41;100720.41;;;8.50;100.00
8705;BME280;4389;41.932;25.904;2022-12-16T07:35:25;100730.16;;;8.72;100.00
8705;BME280;4389;41.932;25.904;2022-12-16T07:38:21;100731.13;;;8.82;100.00
8705;BME280;4389;41.932;25.904;2022-12-16T07:41:21;100733.53;;;8.95;100.00
8705;BME280;4389;41.932;25.904;2022-12-16T07:44:05;100734.25;;;9.08;100.00
8705;BME280;4389;41.932;25.904;2022-12-16T07:46:50;100722.00;;;9.18;99.68
8705;BME280;4389;41.932;25.904;2022-12-16T07:49:34;100724.41;;;9.21;100.00
8705;BME280;4389;41.932;25.904;2022-12-16T07:52:18;100714.78;;;9.42;98.57
8705;BME280;4389;41.932;25.904;2022-12-16T07:55:03;100719.81;;;9.56;97.76
8705;BME280;4389;41.932;25.904;2022-12-16T07:57:50;100713.50;;;9.68;97.68
8705;BME280;4389;41.932;25.904;2022-12-16T08:00:34;100711.63;;;9.59;96.64
8705;BME280;4389;41.932;25.904;2022-12-16T08:03:18;100716.53;;;9.64;97.65
8705;BME280;4389;41.932;25.904;2022-12-16T08:06:03;100727.47;;;9.70;97.10
8705;BME280;4389;41.932;25.904;2022-12-16T08:08:48;100727.47;;;9.70;96.39
8705;BME280;4389;41.932;25.904;2022-12-16T08:11:32;100732.50;;;9.62;97.79
8705;BME280;4389;41.932;25.904;2022-12-16T08:14:18;100740.88;;;9.78;97.96
8705;BME280;4389;41.932;25.904;2022-12-16T08:17:03;100731.44;;;9.96;97.41
8705;BME280;4389;41.932;25.904;2022-12-16T08:19:47;100738.56;;;10.27;95.88
8705;BME280;4389;41.932;25.904;2022-12-16T08:22:31;100749.56;;;10.32;94.54
8705;BME280;4389;41.932;25.904;2022-12-16T08:25:16;100749.25;;;10.26;94.74
8705;BME280;4389;41.932;25.904;2022-12-16T08:28:00;100748.22;;;10.17;95.13
8705;BME280;4389;41.932;25.904;2022-12-16T08:30:49;100750.03;;;10.37;94.73
8705;BME280;4389;41.932;25.904;2022-12-16T08:33:42;100752.09;;;10.13;95.79
8705;BME280;4389;41.932;25.904;2022-12-16T08:36:27;100769.03;;;10.11;97.14
8705;BME280;4389;41.932;25.904;2022-12-16T08:39:23;100782.91;;;9.81;97.98
8705;BME280;4389;41.932;25.904;2022-12-16T08:42:07;100790.16;;;9.57;100.00
8705;BME280;4389;41.932;25.904;2022-12-16T08:44:51;100790.28;;;9.67;100.00
8705;BME280;4389;41.932;25.904;2022-12-16T08:47:37;100782.47;;;9.54;100.00
8705;BME280;4389;41.932;25.904;2022-12-16T08:50:22;100787.06;;;9.30;100.00
8705;BME280;4389;41.932;25.904;2022-12-16T08:53:11;100775.53;;;9.20;100.00
8705;BME280;4389;41.932;25.904;2022-12-16T08:55:56;100756.19;;;9.09;100.00
8705;BME280;4389;41.932;25.904;2022-12-16T08:58:40;100750.78;;;9.32;100.00
8705;BME280;4389;41.932;25.904;2022-12-16T09:01:24;100751.88;;;9.41;100.00
8705;BME280;4389;41.932;25.904;2022-12-16T09:04:10;100740.94;;;9.56;100.00
8705;BME280;4389;41.932;25.904;2022-12-16T09:06:54;100748.22;;;9.64;100.00
8705;BME280;4389;41.932;25.904;2022-12-16T09:09:38;100738.19;;;9.89;100.00
8705;BME280;4389;41.932;25.904;2022-12-16T09:12:23;100731.00;;;9.91;100.00
8705;BME280;4389;41.932;25.904;2022-12-16T09:15:08;100739.38;;;9.96;100.00
8705;BME280;4389;41.932;25.904;2022-12-16T09:17:53;100727.53;;;9.80;100.00
8705;BME280;4389;41.932;25.904;2022-12-16T09:20:39;100727.88;;;9.86;100.00
8705;BME280;4389;41.932;25.904;2022-12-16T09:23:23;100712.44;;;10.02;100.00
8705;BME280;4389;41.932;25.904;2022-12-16T09:26:07;100707.72;;;10.37;100.00
8705;BME280;4389;41.932;25.904;2022-12-16T09:28:52;100711.19;;;10.58;100.00
8705;BME280;4389;41.932;25.904;2022-12-16T09:31:36;100707.94;;;10.75;99.09
8705;BME280;4389;41.932;25.904;2022-12-16T09:34:32;100711.91;;;10.90;98.51
8705;BME280;4389;41.932;25.904;2022-12-16T09:37:18;100710.69;;;10.94;98.17
8705;BME280;4389;41.932;25.904;2022-12-16T09:40:02;100703.81;;;10.82;97.96
8705;BME280;4389;41.932;25.904;2022-12-16T09:42:49;100694.63;;;10.86;98.38
8705;BME280;4389;41.932;25.904;2022-12-16T09:45:41;100688.53;;;10.95;98.27
8705;BME280;4389;41.932;25.904;2022-12-16T09:48:33;100681.50;;;11.05;97.59
8705;BME280;4389;41.932;25.904;2022-12-16T09:51:21;100682.06;;;10.79;99.46
8705;BME280;4389;41.932;25.904;2022-12-16T09:54:11;100668.44;;;10.83;99.07
8705;BME280;4389;41.932;25.904;2022-12-16T09:56:58;100671.00;;;10.94;98.64
8705;BME280;4389;41.932;25.904;2022-12-16T09:59:50;100685.28;;;10.82;98.66
8705;BME280;4389;41.932;25.904;2022-12-16T10:02:36;100672.09;;;10.92;100.00
8705;BME280;4389;41.932;25.904;2022-12-16T10:05:45;100660.94;;;10.88;100.00
8705;BME280;4389;41.932;25.904;2022-12-16T10:08:37;100654.63;;;11.19;99.34
8705;BME280;4389;41.932;25.904;2022-12-16T10:11:40;100641.84;;;11.43;97.33
8705;BME280;4389;41.932;25.904;2022-12-16T10:14:33;100643.53;;;11.44;98.07
8705;BME280;4389;41.932;25.904;2022-12-16T10:17:22;100646.94;;;11.94;96.98
8705;BME280;4389;41.932;25.904;2022-12-16T10:20:15;100639.91;;;12.21;95.10
8705;BME280;4389;41.932;25.904;2022-12-16T10:23:09;100633.81;;;12.57;93.01
8705;BME280;4389;41.932;25.904;2022-12-16T10:26:02;100624.53;;;12.44;92.80
8705;BME280;4389;41.932;25.904;2022-12-16T10:28:56;100628.91;;;12.07;93.52
8705;BME280;4389;41.932;25.904;2022-12-16T10:31:43;100625.31;;;11.98;94.88
8705;BME280;4389;41.932;25.904;2022-12-16T10:34:29;100630.34;;;11.63;97.39
8705;BME280;4389;41.932;25.904;2022-12-16T10:37:17;100629.06;;;11.67;97.63
8705;BME280;4389;41.932;25.904;2022-12-16T10:40:05;100630.19;;;11.74;97.13
8705;BME280;4389;41.932;25.904;2022-12-16T10:42:57;100612.91;;;11.70;97.22
8705;BME280;4389;41.932;25.904;2022-12-16T10:45:46;100605.63;;;11.72;97.17
8705;BME280;4389;41.932;25.904;2022-12-16T10:48:32;100597.00;;;11.70;97.25
8705;BME280;4389;41.932;25.904;2022-12-16T10:51:17;100598.34;;;12.12;97.00
8705;BME280;4389;41.932;25.904;2022-12-16T10:54:27;100599.00;;;12.60;94.19
8705;BME280;4389;41.932;25.904;2022-12-16T10:57:17;100602.97;;;12.56;93.48
8705;BME280;4389;41.932;25.904;2022-12-16T11:00:08;100590.03;;;12.71;93.25
8705;BME280;4389;41.932;25.904;2022-12-16T11:02:54;100592.75;;;12.88;92.50
8705;BME280;4389;41.932;25.904;2022-12-16T11:05:39;100587.34;;;13.07;91.46
8705;BME280;4389;41.932;25.904;2022-12-16T11:08:27;100583.03;;;13.06;90.88
8705;BME280;4389;41.932;25.904;2022-12-16T11:11:13;100590.69;;;13.09;90.88
8705;BME280;4389;41.932;25.904;2022-12-16T11:14:20;100589.16;;;12.80;93.01
8705;BME280;4389;41.932;25.904;2022-12-16T11:17:16;100578.78;;;12.86;92.68
8705;BME280;4389;41.932;25.904;2022-12-16T11:20:13;100589.38;;;12.96;93.70
8705;BME280;4389;41.932;25.904;2022-12-16T11:23:16;100575.06;;;13.06;92.85
8705;BME280;4389;41.932;25.904;2022-12-16T11:26:06;100572.31;;;12.98;94.16
8705;BME280;4389;41.932;25.904;2022-12-16T11:29:02;100580.47;;;13.14;93.83
8705;BME280;4389;41.932;25.904;2022-12-16T11:31:49;100574.03;;;13.17;93.36
8705;BME280;4389;41.932;25.904;2022-12-16T11:34:35;100588.94;;;13.00;94.49
8705;BME280;4389;41.932;25.904;2022-12-16T11:37:21;100581.69;;;12.66;95.87
8705;BME280;4389;41.932;25.904;2022-12-16T11:40:14;100584.81;;;12.52;98.08
8705;BME280;4389;41.932;25.904;2022-12-16T11:43:00;100587.53;;;12.69;98.21
8705;BME280;4389;41.932;25.904;2022-12-16T11:45:45;100583.84;;;12.80;97.51
8705;BME280;4389;41.932;25.904;2022-12-16T11:48:35;100593.63;;;12.79;97.38
8705;BME280;4389;41.932;25.904;2022-12-16T11:51:22;100591.53;;;12.46;98.71
8705;BME280;4389;41.932;25.904;2022-12-16T11:54:14;100597.34;;;12.59;98.86
8705;BME280;4389;41.932;25.904;2022-12-16T11:57:19;100600.16;;;12.58;99.87
8705;BME280;4389;41.932;25.904;2022-12-16T12:00:08;100600.97;;;12.58;100.00
8705;BME280;4389;41.932;25.904;2022-12-16T12:03:03;100603.75;;;12.66;100.00
8705;BME280;4389;41.932;25.904;2022-12-16T12:05:56;100603.50;;;12.60;100.00
8705;BME280;4389;41.932;25.904;2022-12-16T12:08:47;100590.88;;;12.71;100.00
8705;BME280;4389;41.932;25.904;2022-12-16T12:11:42;100578.28;;;12.73;100.00
8705;BME280;4389;41.932;25.904;2022-12-16T12:14:33;100586.41;;;12.72;100.00
8705;BME280;4389;41.932;25.904;2022-12-16T12:17:25;100580.03;;;12.82;100.00
8705;BME280;4389;41.932;25.904;2022-12-16T12:20:31;100586.16;;;12.92;100.00
8705;BME280;4389;41.932;25.904;2022-12-16T12:23:21;100584.31;;;13.02;100.00
8705;BME280;4389;41.932;25.904;2022-12-16T12:26:23;100581.09;;;13.26;99.15
8705;BME280;4389;41.932;25.904;2022-12-16T12:29:17;100576.31;;;13.29;98.63
8705;BME280;4389;41.932;25.904;2022-12-16T12:32:10;100583.66;;;13.18;98.48
8705;BME280;4389;41.932;25.904;2022-12-16T12:35:05;100589.41;;;12.86;100.00
8705;BME280;4389;41.932;25.904;2022-12-16T12:37:57;100579.38;;;12.80;100.00
8705;BME280;4389;41.932;25.904;2022-12-16T12:40:50;100579.84;;;12.93;100.00
8705;BME280;4389;41.932;25.904;2022-12-16T12:43:47;100576.13;;;13.13;100.00
8705;BME280;4389;41.932;25.904;2022-12-16T12:46:44;100565.34;;;12.97;99.75
8705;BME280;4389;41.932;25.904;2022-12-16T12:49:37;100567.00;;;12.98;100.00
8705;BME280;4389;41.932;25.904;2022-12-16T12:52:49;100569.69;;;12.89;100.00
8705;BME280;4389;41.932;25.904;2022-12-16T12:55:42;100576.94;;;12.96;100.00
8705;BME280;4389;41.932;25.904;2022-12-16T12:58:29;100568.00;;;12.97;100.00
8705;BME280;4389;41.932;25.904;2022-12-16T13:01:21;100562.97;;;12.85;100.00
8705;BME280;4389;41.932;25.904;2022-12-16T13:04:12;100557.31;;;12.80;100.00
8705;BME280;4389;41.932;25.904;2022-12-16T13:07:00;100571.22;;;12.91;100.00
8705;BME280;4389;41.932;25.904;2022-12-16T13:09:45;100565.91;;;12.91;100.00
8705;BME280;4389;41.932;25.904;2022-12-16T13:13:31;100557.19;;;12.99;100.00
8705;BME280;4389;41.932;25.904;2022-12-16T13:19:55;100569.84;;;13.14;100.00
8705;BME280;4389;41.932;25.904;2022-12-16T13:22:40;100570.81;;;13.13;100.00
8705;BME280;4389;41.932;25.904;2022-12-16T13:25:38;100578.88;;;12.94;100.00
8705;BME280;4389;41.932;25.904;2022-12-16T13:28:26;100582.81;;;12.90;100.00
8705;BME280;4389;41.932;25.904;2022-12-16T13:31:12;100589.16;;;12.80;100.00
8705;BME280;4389;41.932;25.904;2022-12-16T13:34:02;100589.31;;;12.78;100.00
8705;BME280;4389;41.932;25.904;2022-12-16T13:36:55;100597.81;;;12.45;100.00
8705;BME280;4389;41.932;25.904;2022-12-16T13:39:41;100585.38;;;12.55;100.00
8705;BME280;4389;41.932;25.904;2022-12-16T13:42:47;100582.84;;;12.54;100.00
8705;BME280;4389;41.932;25.904;2022-12-16T13:45:34;100592.13;;;12.40;100.00
8705;BME280;4389;41.932;25.904;2022-12-16T13:48:37;100595.34;;;12.34;100.00
8705;BME280;4389;41.932;25.904;2022-12-16T13:51:58;100600.56;;;12.07;100.00
8705;BME280;4389;41.932;25.904;2022-12-16T13:54:48;100603.97;;;11.90;100.00
8705;BME280;4389;41.932;25.904;2022-12-16T13:57:36;100606.47;;;11.82;100.00
8705;BME280;4389;41.932;25.904;2022-12-16T14:00:24;100613.72;;;11.80;100.00
8705;BME280;4389;41.932;25.904;2022-12-16T14:03:12;100621.81;;;11.79;100.00
8705;BME280;4389;41.932;25.904;2022-12-16T14:06:00;100610.09;;;11.81;100.00
8705;BME280;4389;41.932;25.904;2022-12-16T14:08:48;100610.66;;;11.75;100.00
8705;BME280;4389;41.932;25.904;2022-12-16T14:11:42;100607.25;;;11.54;100.00
8705;BME280;4389;41.932;25.904;2022-12-16T14:14:32;100614.25;;;11.55;100.00
8705;BME280;4389;41.932;25.904;2022-12-16T14:17:23;100601.44;;;11.60;100.00
8705;BME280;4389;41.932;25.904;2022-12-16T14:20:14;100608.13;;;11.55;100.00
8705;BME280;4389;41.932;25.904;2022-12-16T14:23:13;100614.66;;;11.41;100.00
8705;BME280;4389;41.932;25.904;2022-12-16T14:26:10;100621.91;;;11.39;100.00
8705;BME280;4389;41.932;25.904;2022-12-16T14:28:56;100626.78;;;11.34;100.00